createdAt,value
2022-08-12T00:02:04.276Z,101449.69
2022-08-12T00:04:46.891Z,101452.06
2022-08-12T00:07:33.862Z,101447.75
2022-08-12T00:10:19.660Z,101445.41
2022-08-12T00:13:05.147Z,101445.16
2022-08-12T00:15:52.544Z,101445.59
2022-08-12T00:18:37.779Z,101442.34
2022-08-12T00:21:23.640Z,101442.97
2022-08-12T00:24:11.622Z,101438.91
2022-08-12T00:26:59.154Z,101437.59
2022-08-12T00:29:48.017Z,101446.63
2022-08-12T00:32:36.694Z,101446.13
2022-08-12T00:35:30.784Z,101446.78
2022-08-12T00:38:22.551Z,101445.50
2022-08-12T00:41:08.395Z,101443.53
2022-08-12T00:43:37.437Z,101447.81
2022-08-12T00:46:24.009Z,101448.44
2022-08-12T00:48:53.517Z,101449.06
2022-08-12T00:51:21.366Z,101452.28
2022-08-12T00:53:50.290Z,101449.06
2022-08-12T00:56:20.161Z,101451.41
2022-08-12T00:58:50.935Z,101450.09
2022-08-12T01:01:19.405Z,101457.16
2022-08-12T01:04:07.327Z,101450.91
2022-08-12T01:06:55.936Z,101452.41
2022-08-12T01:09:41.769Z,101461.38
2022-08-12T01:12:10.727Z,101462.00
2022-08-12T01:14:40.934Z,101458.75
2022-08-12T01:17:09.876Z,101460.25
2022-08-12T01:19:38.204Z,101456.13
2022-08-12T01:22:21.146Z,101449.03
2022-08-12T01:24:59.191Z,101451.56
2022-08-12T01:27:28.470Z,101452.00
2022-08-12T01:29:58.114Z,101455.19
2022-08-12T01:32:27.992Z,101452.78
2022-08-12T01:34:58.944Z,101450.44
2022-08-12T01:37:27.637Z,101458.13
2022-08-12T01:40:31.554Z,101451.22
2022-08-12T01:42:48.269Z,101452.72
2022-08-12T01:45:17.652Z,101453.97
2022-08-12T01:47:57.995Z,101456.31
2022-08-12T01:50:27.634Z,101451.34
2022-08-12T01:53:01.859Z,101450.88
2022-08-12T01:55:33.401Z,101449.34
2022-08-12T01:58:07.238Z,101444.38
2022-08-12T02:00:54.947Z,101454.00
2022-08-12T02:04:07.842Z,101447.09
2022-08-12T02:07:00.165Z,101447.72
2022-08-12T02:09:51.765Z,101450.88
2022-08-12T02:12:31.419Z,101455.34
2022-08-12T02:15:04.732Z,101452.97
2022-08-12T02:17:55.568Z,101459.81
2022-08-12T02:20:51.076Z,101463.00
2022-08-12T02:23:18.423Z,101458.88
2022-08-12T02:25:47.936Z,101465.75
2022-08-12T02:28:17.457Z,101462.47
2022-08-12T02:30:45.299Z,101458.19
2022-08-12T02:33:13.385Z,101466.06
2022-08-12T02:35:41.465Z,101469.06
2022-08-12T02:38:11.104Z,101464.94
2022-08-12T02:40:40.511Z,101460.63
2022-08-12T02:43:13.400Z,101460.97
2022-08-12T02:45:45.447Z,101462.25
2022-08-12T02:48:17.111Z,101471.00
2022-08-12T02:50:48.442Z,101459.38
2022-08-12T02:53:16.753Z,101467.09
2022-08-12T02:55:45.797Z,101461.91
2022-08-12T02:58:15.076Z,101471.53
2022-08-12T03:00:45.375Z,101469.16
2022-08-12T03:03:14.482Z,101471.44
2022-08-12T03:05:46.402Z,101464.56
2022-08-12T03:08:31.497Z,101463.19
2022-08-12T03:11:03.330Z,101456.31
2022-08-12T03:13:33.471Z,101462.25
2022-08-12T03:16:03.089Z,101457.06
2022-08-12T03:18:32.132Z,101462.00
2022-08-12T03:21:01.535Z,101467.09
2022-08-12T03:23:31.197Z,101464.50
2022-08-12T03:26:02.056Z,101464.91
2022-08-12T03:28:49.069Z,101461.63
2022-08-12T03:31:19.417Z,101460.09
2022-08-12T03:34:01.827Z,101460.50
2022-08-12T03:36:33.823Z,101458.06
2022-08-12T03:41:58.754Z,101453.25
2022-08-12T03:44:47.359Z,101459.03
2022-08-12T03:47:38.100Z,101455.97
2022-08-12T03:50:23.882Z,101452.69
2022-08-12T03:53:09.515Z,101465.28
2022-08-12T03:55:55.127Z,101465.84
2022-08-12T03:58:42.026Z,101458.09
2022-08-12T04:01:09.746Z,101453.94
2022-08-12T04:03:56.116Z,101457.09
2022-08-12T04:06:34.991Z,101460.28
2022-08-12T04:09:15.586Z,101458.75
2022-08-12T04:12:03.497Z,101462.75
2022-08-12T04:14:33.343Z,101458.66
2022-08-12T04:17:01.477Z,101465.47
2022-08-12T04:19:30.285Z,101464.13
2022-08-12T04:22:01.188Z,101466.41
2022-08-12T04:24:31.107Z,101471.50
2022-08-12T04:26:59.240Z,101470.97
2022-08-12T04:30:21.482Z,101462.13
2022-08-12T04:32:16.849Z,101463.41
2022-08-12T04:34:44.988Z,101472.13
2022-08-12T04:37:13.419Z,101470.56
2022-08-12T04:39:41.293Z,101469.91
2022-08-12T04:42:09.110Z,101477.56
2022-08-12T04:44:36.781Z,101476.91
2022-08-12T04:47:04.601Z,101476.44
2022-08-12T04:49:35.798Z,101473.81
2022-08-12T04:52:04.187Z,101461.16
2022-08-12T04:54:33.544Z,101462.38
2022-08-12T04:57:03.145Z,101457.03
2022-08-12T04:59:47.613Z,101462.94
2022-08-12T05:02:20.912Z,101460.34
2022-08-12T05:04:52.352Z,101462.25
2022-08-12T05:07:20.403Z,101468.00
2022-08-12T05:09:59.287Z,101462.44
2022-08-12T05:12:31.210Z,101457.97
2022-08-12T05:14:59.214Z,101460.75
2022-08-12T05:17:27.279Z,101463.53
2022-08-12T05:19:57.935Z,101460.75
2022-08-12T05:22:26.073Z,101461.56
2022-08-12T05:24:53.866Z,101461.41
2022-08-12T05:27:23.621Z,101465.03
2022-08-12T05:30:07.469Z,101460.84
2022-08-12T05:32:37.185Z,101465.66
2022-08-12T05:35:08.052Z,101472.38
2022-08-12T05:37:35.953Z,101471.25
2022-08-12T05:40:10.533Z,101470.97
2022-08-12T05:42:39.397Z,101473.16
2022-08-12T05:45:07.625Z,101476.13
2022-08-12T05:47:52.634Z,101477.38
2022-08-12T05:50:23.083Z,101473.56
2022-08-12T05:52:50.722Z,101473.91
2022-08-12T05:55:24.197Z,101477.09
2022-08-12T05:57:55.366Z,101475.06
2022-08-12T06:00:25.804Z,101473.22
2022-08-12T06:02:57.075Z,101481.66
2022-08-12T06:05:26.597Z,101480.88
2022-08-12T06:08:01.330Z,101489.53
2022-08-12T06:10:32.034Z,101487.38
2022-08-12T06:13:00.393Z,101482.47
2022-08-12T06:15:28.293Z,101480.38
2022-08-12T06:17:56.370Z,101492.19
2022-08-12T06:20:28.753Z,101480.63
2022-08-12T06:22:58.873Z,101489.66
2022-08-12T06:25:29.339Z,101478.13
2022-08-12T06:28:06.517Z,101493.59
2022-08-12T06:30:39.543Z,101488.53
2022-08-12T06:33:22.518Z,101492.63
2022-08-12T06:35:57.417Z,101492.72
2022-08-12T06:38:28.604Z,101494.31
2022-08-12T06:41:15.163Z,101495.69
2022-08-12T06:44:04.933Z,101493.69
2022-08-12T06:46:32.004Z,101489.56
2022-08-12T06:49:00.241Z,101481.56
2022-08-12T06:51:29.550Z,101489.88
2022-08-12T06:53:58.849Z,101483.16
2022-08-12T06:56:45.889Z,101481.56
2022-08-12T06:59:15.599Z,101481.22
2022-08-12T07:01:49.620Z,101483.94
2022-08-12T07:04:36.403Z,101483.53
2022-08-12T07:07:06.382Z,101479.28
2022-08-12T07:09:59.487Z,101485.69
2022-08-12T07:12:26.581Z,101485.00
2022-08-12T07:14:55.590Z,101476.53
2022-08-12T07:17:23.291Z,101486.75
2022-08-12T07:19:52.083Z,101491.59
2022-08-12T07:22:21.996Z,101485.69
2022-08-12T07:25:11.532Z,101488.09
2022-08-12T07:27:40.640Z,101498.97
2022-08-12T07:30:09.798Z,101497.28
2022-08-12T07:32:37.783Z,101502.31
2022-08-12T07:35:05.788Z,101503.06
2022-08-12T07:37:35.116Z,101504.91
2022-08-12T07:40:04.708Z,101496.56
2022-08-12T07:42:32.411Z,101495.75
2022-08-12T07:45:00.368Z,101500.22
2022-08-12T07:47:28.396Z,101495.09
2022-08-12T07:50:03.534Z,101495.94
2022-08-12T07:52:34.003Z,101499.53
2022-08-12T07:55:01.818Z,101490.13
2022-08-12T07:57:32.566Z,101492.84
2022-08-12T08:00:04.836Z,101497.28
2022-08-12T08:02:37.029Z,101498.88
2022-08-12T08:05:05.881Z,101505.53
2022-08-12T08:07:33.611Z,101500.69
2022-08-12T08:10:02.269Z,101504.03
2022-08-12T08:12:48.850Z,101503.94
2022-08-12T08:15:17.490Z,101507.88
2022-08-12T08:17:59.701Z,101502.75
2022-08-12T08:20:29.468Z,101503.84
2022-08-12T08:22:58.168Z,101501.56
2022-08-12T08:25:36.969Z,101508.56
2022-08-12T08:28:08.125Z,101512.50
2022-08-12T08:30:38.265Z,101509.94
2022-08-12T08:33:21.232Z,101503.66
2022-08-12T08:35:51.080Z,101496.09
2022-08-12T08:38:32.453Z,101502.84
2022-08-12T08:42:15.369Z,101488.94
2022-08-12T08:44:10.883Z,101498.47
2022-08-12T08:46:39.308Z,101498.72
2022-08-12T08:49:07.266Z,101499.44
2022-08-12T08:51:35.271Z,101502.75
2022-08-12T08:54:03.086Z,101492.16
2022-08-12T08:56:30.884Z,101493.13
2022-08-12T08:58:58.803Z,101496.91
2022-08-12T09:01:31.155Z,101488.25
2022-08-12T09:05:12.941Z,101508.75
2022-08-12T09:06:56.835Z,101508.38
2022-08-12T09:09:28.359Z,101498.63
2022-08-12T09:12:27.317Z,101501.03
2022-08-12T09:14:55.406Z,101505.41
2022-08-12T09:17:24.410Z,101495.63
2022-08-12T09:22:39.836Z,101494.50
2022-08-12T09:25:07.636Z,101491.75
2022-08-12T09:30:41.757Z,101484.28
2022-08-12T09:33:18.944Z,101494.25
2022-08-12T09:36:04.789Z,101491.16
2022-08-12T09:38:35.217Z,101482.66
2022-08-12T09:42:33.315Z,101490.00
2022-08-12T09:44:38.541Z,101484.09
2022-08-12T09:46:58.963Z,101483.59
2022-08-12T09:49:37.192Z,101480.22
2022-08-12T09:52:11.607Z,101484.28
2022-08-12T09:54:42.651Z,101474.13
2022-08-12T09:58:08.270Z,101483.56
2022-08-12T10:00:14.575Z,101460.78
2022-08-12T10:03:02.714Z,101465.38
2022-08-12T10:06:19.605Z,101462.34
2022-08-12T10:08:27.404Z,101462.19
2022-08-12T10:11:20.538Z,101448.09
2022-08-12T10:13:49.975Z,101455.53
2022-08-12T10:16:22.702Z,101446.84
2022-08-12T10:18:52.821Z,101436.44
2022-08-12T10:21:23.706Z,101445.28
2022-08-12T10:23:56.623Z,101436.84
2022-08-12T10:26:42.697Z,101427.81
2022-08-12T10:30:38.642Z,101426.44
2022-08-12T10:33:02.439Z,101421.09
2022-08-12T10:35:09.812Z,101416.59
2022-08-12T10:38:38.567Z,101420.63
2022-08-12T10:40:31.891Z,101415.00
2022-08-12T10:43:17.873Z,101404.88
2022-08-12T10:45:49.179Z,101403.19
2022-08-12T10:48:21.979Z,101397.56
2022-08-12T10:51:02.525Z,101399.88
2022-08-12T10:53:45.019Z,101385.22
2022-08-12T10:56:15.301Z,101391.16
2022-08-12T10:58:46.320Z,101390.91
2022-08-12T11:03:02.330Z,101396.56
2022-08-12T11:04:27.160Z,101382.13
2022-08-12T11:07:07.902Z,101381.28
2022-08-12T11:10:00.134Z,101374.50
2022-08-12T11:12:57.155Z,101376.22
2022-08-12T11:15:20.971Z,101375.09
2022-08-12T11:17:55.648Z,101366.59
2022-08-12T11:20:24.589Z,101366.28
2022-08-12T11:22:59.526Z,101366.88
2022-08-12T11:25:56.127Z,101358.97
2022-08-12T11:28:17.604Z,101351.91
2022-08-12T11:31:01.372Z,101356.16
2022-08-12T11:34:04.502Z,101364.41
2022-08-12T11:36:17.293Z,101362.16
2022-08-12T11:38:50.508Z,101346.00
2022-08-12T11:41:27.975Z,101349.69
2022-08-12T11:43:59.713Z,101343.75
2022-08-12T11:46:51.383Z,101350.28
2022-08-12T11:49:30.668Z,101350.28
2022-08-12T11:52:01.067Z,101350.28
2022-08-12T11:54:29.779Z,101348.56
2022-08-12T11:57:01.923Z,101343.16
2022-08-12T12:02:02.814Z,101332.94
2022-08-12T12:02:20.237Z,101333.22
2022-08-12T12:04:52.461Z,101338.88
2022-08-12T12:07:33.683Z,101336.06
2022-08-12T12:10:11.148Z,101330.38
2022-08-12T12:12:41.559Z,101328.13
2022-08-12T12:15:25.424Z,101321.34
2022-08-12T12:18:05.165Z,101323.91
2022-08-12T12:20:32.955Z,101325.59
2022-08-12T12:23:00.605Z,101312.00
2022-08-12T12:25:59.683Z,101310.03
2022-08-12T12:28:36.538Z,101308.91
2022-08-12T12:31:15.089Z,101309.50
2022-08-12T12:33:58.369Z,101310.94
2022-08-12T12:36:30.183Z,101297.31
2022-08-12T12:39:00.281Z,101300.75
2022-08-12T12:42:43.137Z,101296.19
2022-08-12T12:44:38.608Z,101292.22
2022-08-12T12:47:28.838Z,101279.19
2022-08-12T12:49:53.539Z,101271.25
2022-08-12T12:52:21.545Z,101275.53
2022-08-12T12:54:57.514Z,101265.63
2022-08-12T12:57:36.406Z,101269.91
2022-08-12T13:00:16.569Z,101266.53
2022-08-12T13:02:53.656Z,101268.81
2022-08-12T13:05:27.960Z,101256.06
2022-08-12T13:08:01.003Z,101249.25
2022-08-12T13:10:32.168Z,101260.34
2022-08-12T13:13:09.633Z,101251.53
2022-08-12T13:15:58.972Z,101248.69
2022-08-12T13:18:33.595Z,101247.56
2022-08-12T13:21:02.450Z,101242.75
2022-08-12T13:23:36.124Z,101242.75
2022-08-12T13:26:04.576Z,101243.59
2022-08-12T13:28:32.851Z,101242.75
2022-08-12T13:31:02.354Z,101242.47
2022-08-12T13:34:32.053Z,101236.53
2022-08-12T13:36:20.369Z,101246.75
2022-08-12T13:38:52.070Z,101236.25
2022-08-12T13:41:33.633Z,101228.59
2022-08-12T13:44:01.872Z,101231.44
2022-08-12T13:46:30.876Z,101231.44
2022-08-12T13:48:58.803Z,101227.75
2022-08-12T13:51:26.975Z,101231.72
2022-08-12T13:54:10.004Z,101225.19
2022-08-12T13:56:41.654Z,101221.75
2022-08-12T13:59:18.373Z,101221.19
2022-08-12T14:01:54.437Z,101209.28
2022-08-12T14:04:24.899Z,101223.47
2022-08-12T14:06:54.068Z,101207.00
2022-08-12T14:09:21.820Z,101205.28
2022-08-12T14:11:59.029Z,101207.53
2022-08-12T14:14:31.581Z,101206.97
2022-08-12T14:17:09.994Z,101199.88
2022-08-12T14:19:48.571Z,101200.16
2022-08-12T14:22:26.096Z,101206.63
2022-08-12T14:24:54.207Z,101206.91
2022-08-12T14:28:04.470Z,101205.19
2022-08-12T14:30:17.163Z,101200.06
2022-08-12T14:32:53.351Z,101189.84
2022-08-12T14:35:21.604Z,101197.53
2022-08-12T14:37:58.150Z,101179.66
2022-08-12T14:40:27.788Z,101182.75
2022-08-12T14:42:57.037Z,101182.19
2022-08-12T14:45:45.373Z,101182.44
2022-08-12T14:48:15.125Z,101187.53
2022-08-12T14:51:07.598Z,101193.78
2022-08-12T14:57:05.766Z,101180.13
2022-08-12T14:59:25.404Z,101178.94
2022-08-12T15:01:54.696Z,101173.00
2022-08-12T15:04:29.185Z,101178.34
2022-08-12T15:06:58.125Z,101182.56
2022-08-12T15:09:28.738Z,101177.75
2022-08-12T15:12:03.092Z,101178.25
2022-08-12T15:14:32.025Z,101174.00
2022-08-12T15:17:00.217Z,101174.53
2022-08-12T15:20:31.033Z,101168.56
2022-08-12T15:22:38.341Z,101164.56
2022-08-12T15:25:07.586Z,101161.16
2022-08-12T15:28:20.408Z,101163.41
2022-08-12T15:30:33.913Z,101157.72
2022-08-12T15:33:03.215Z,101155.72
2022-08-12T15:35:50.234Z,101152.56
2022-08-12T15:38:22.229Z,101149.69
2022-08-12T15:40:53.376Z,101152.22
2022-08-12T15:43:51.744Z,101153.91
2022-08-12T15:46:15.578Z,101164.00
2022-08-12T15:48:46.757Z,101147.84
2022-08-12T15:51:27.889Z,101157.72
2022-08-12T15:54:33.723Z,101147.50
2022-08-12T15:57:05.634Z,101144.34
2022-08-12T16:00:00.070Z,101148.00
2022-08-12T16:02:21.593Z,101148.78
2022-08-12T16:04:51.447Z,101152.16
2022-08-12T16:07:30.178Z,101146.19
2022-08-12T16:10:08.702Z,101149.81
2022-08-12T16:12:43.381Z,101152.59
2022-08-12T16:15:22.783Z,101145.75
2022-08-12T16:18:17.874Z,101144.81
2022-08-12T16:20:40.761Z,101139.97
2022-08-12T16:23:27.009Z,101149.25
2022-08-12T16:26:14.409Z,101135.06
2022-08-12T16:28:43.490Z,101138.72
2022-08-12T16:31:18.564Z,101130.16
2022-08-12T16:34:00.408Z,101121.63
2022-08-12T16:36:29.304Z,101125.22
2022-08-12T16:39:01.471Z,101120.13
2022-08-12T16:41:38.191Z,101123.44
2022-08-12T16:44:08.290Z,101125.09
2022-08-12T16:46:36.196Z,101126.75
2022-08-12T16:49:13.263Z,101119.06
2022-08-12T16:51:46.911Z,101111.09
2022-08-12T16:54:18.340Z,101106.25
2022-08-12T16:56:54.502Z,101108.50
2022-08-12T16:59:26.333Z,101112.69
2022-08-12T17:02:18.120Z,101113.25
2022-08-12T17:05:03.335Z,101107.25
2022-08-12T17:07:36.614Z,101107.75
2022-08-12T17:10:08.207Z,101109.16
2022-08-12T17:12:37.568Z,101109.94
2022-08-12T17:15:50.413Z,101105.69
2022-08-12T17:18:15.237Z,101106.44
2022-08-12T17:20:46.748Z,101094.78
2022-08-12T17:23:15.785Z,101108.59
2022-08-12T17:25:48.384Z,101110.22
2022-08-12T17:28:16.965Z,101112.72
2022-08-12T17:30:45.424Z,101112.38
2022-08-12T17:33:25.305Z,101112.06
2022-08-12T17:35:53.228Z,101108.03
2022-08-12T17:38:21.244Z,101113.94
2022-08-12T17:40:51.293Z,101109.69
2022-08-12T17:43:54.578Z,101113.03
2022-08-12T17:46:13.041Z,101112.69
2022-08-12T17:48:55.196Z,101122.81
2022-08-12T17:51:25.240Z,101121.34
2022-08-12T17:54:10.566Z,101121.03
2022-08-12T17:56:43.221Z,101116.97
2022-08-12T17:59:13.065Z,101115.78
2022-08-12T18:01:45.121Z,101113.47
2022-08-12T18:04:20.726Z,101112.00
2022-08-12T18:06:50.950Z,101126.06
2022-08-12T18:09:19.696Z,101122.88
2022-08-12T18:12:08.379Z,101121.69
2022-08-12T18:14:37.301Z,101128.94
2022-08-12T18:17:10.187Z,101128.88
2022-08-12T18:20:03.903Z,101137.84
2022-08-12T18:22:30.754Z,101135.56
2022-08-12T18:26:12.544Z,101135.44
2022-08-12T18:28:15.706Z,101147.47
2022-08-12T18:30:53.055Z,101155.59
2022-08-12T18:33:25.843Z,101157.81
2022-08-12T18:35:55.651Z,101163.09
2022-08-12T18:38:25.823Z,101162.75
2022-08-12T18:41:21.826Z,101166.09
2022-08-12T18:44:00.031Z,101163.16
2022-08-12T18:46:45.823Z,101170.19
2022-08-12T18:49:19.869Z,101166.13
2022-08-12T18:51:55.255Z,101173.16
2022-08-12T18:54:25.616Z,101165.19
2022-08-12T18:56:53.993Z,101171.56
2022-08-12T19:00:01.449Z,101178.59
2022-08-12T19:02:20.585Z,101172.84
2022-08-12T19:04:53.496Z,101174.44
2022-08-12T19:07:22.706Z,101177.72
2022-08-12T19:09:57.993Z,101178.50
2022-08-12T19:12:56.930Z,101188.31
2022-08-12T19:15:29.979Z,101184.53
2022-08-12T19:18:01.047Z,101188.09
2022-08-12T19:20:31.611Z,101191.66
2022-08-12T19:23:07.192Z,101195.19
2022-08-12T19:26:01.389Z,101196.56
2022-08-12T19:28:30.400Z,101197.31
2022-08-12T19:31:56.355Z,101200.88
2022-08-12T19:34:37.676Z,101200.78
2022-08-12T19:37:10.860Z,101195.22
2022-08-12T19:40:09.919Z,101193.16
2022-08-12T19:42:28.166Z,101192.78
2022-08-12T19:44:59.643Z,101201.97
2022-08-12T19:47:31.190Z,101204.66
2022-08-12T19:50:11.223Z,101200.00
2022-08-12T19:52:40.809Z,101207.25
2022-08-12T19:55:11.626Z,101211.03
2022-08-12T19:58:03.337Z,101208.94
2022-08-12T20:00:36.096Z,101212.50
2022-08-12T20:03:06.463Z,101212.38
2022-08-12T20:06:05.565Z,101203.78
2022-08-12T20:08:31.688Z,101216.59
2022-08-12T20:12:11.142Z,101211.09
2022-08-12T20:14:01.170Z,101213.78
2022-08-12T20:16:51.730Z,101223.78
2022-08-12T20:19:20.739Z,101219.13
2022-08-12T20:21:49.514Z,101228.28
2022-08-12T20:24:19.122Z,101224.25
2022-08-12T20:26:48.306Z,101221.31
2022-08-12T20:29:16.815Z,101226.78
2022-08-12T20:31:45.378Z,101225.53
2022-08-12T20:34:13.289Z,101228.19
2022-08-12T20:36:44.279Z,101228.03
2022-08-12T20:39:37.394Z,101223.13
2022-08-12T20:42:07.095Z,101225.81
2022-08-12T20:44:37.814Z,101222.84
2022-08-12T20:47:16.632Z,101224.63
2022-08-12T20:49:55.831Z,101226.22
2022-08-12T20:52:30.501Z,101222.16
2022-08-12T20:55:01.901Z,101218.34
2022-08-12T20:57:38.235Z,101222.75
2022-08-12T21:00:22.538Z,101227.31
2022-08-12T21:03:15.866Z,101222.41
2022-08-12T21:06:12.940Z,101222.22
2022-08-12T21:08:43.747Z,101219.28
2022-08-12T21:11:11.555Z,101215.22
2022-08-12T21:13:41.901Z,101218.72
2022-08-12T21:16:10.437Z,101218.31
2022-08-12T21:18:38.438Z,101221.00
2022-08-12T21:21:15.725Z,101221.72
2022-08-12T21:23:52.402Z,101218.72
2022-08-12T21:26:24.358Z,101214.69
2022-08-12T21:29:01.738Z,101226.59
2022-08-12T21:32:40.537Z,101226.41
2022-08-12T21:34:26.359Z,101225.38
2022-08-12T21:36:59.158Z,101237.28
2022-08-12T21:39:35.636Z,101233.47
2022-08-12T21:42:06.553Z,101229.38
2022-08-12T21:45:46.701Z,101230.72
2022-08-12T21:47:23.245Z,101226.66
2022-08-12T21:50:02.445Z,101231.88
2022-08-12T21:52:34.881Z,101229.75
2022-08-12T21:55:08.635Z,101231.31
2022-08-12T21:57:51.113Z,101231.75
2022-08-12T22:00:23.898Z,101237.22
2022-08-12T22:04:01.285Z,101236.78
2022-08-12T22:06:26.392Z,101246.69
2022-08-12T22:09:09.069Z,101253.88
2022-08-12T22:11:49.360Z,101248.69
2022-08-12T22:14:25.034Z,101251.13
2022-08-12T22:16:53.879Z,101249.63
2022-08-12T22:19:22.926Z,101247.25
2022-08-12T22:21:53.219Z,101246.88
2022-08-12T22:24:26.347Z,101246.22
2022-08-12T22:27:14.303Z,101242.16
2022-08-12T22:30:07.265Z,101250.16
2022-08-12T22:32:36.587Z,101248.91
2022-08-12T22:35:29.070Z,101245.69
2022-08-12T22:38:10.994Z,101248.06
2022-08-12T22:40:39.711Z,101247.88
2022-08-12T22:43:30.585Z,101245.53
2022-08-12T22:46:15.800Z,101252.00
2022-08-12T22:48:50.683Z,101242.34
2022-08-12T22:51:24.056Z,101241.06
2022-08-12T22:53:54.217Z,101238.69
2022-08-12T22:56:30.819Z,101249.28
2022-08-12T22:59:03.062Z,101237.00
2022-08-12T23:01:52.641Z,101244.78
2022-08-12T23:04:27.539Z,101239.63
2022-08-12T23:06:58.382Z,101245.66
2022-08-12T23:09:44.857Z,101237.72
2022-08-12T23:12:37.422Z,101229.75
2022-08-12T23:15:10.020Z,101230.19
2022-08-12T23:17:40.879Z,101230.63
2022-08-12T23:20:11.253Z,101228.06
2022-08-12T23:22:40.252Z,101232.16
2022-08-12T23:25:19.131Z,101235.41
2022-08-12T23:28:30.260Z,101231.09
2022-08-12T23:31:04.349Z,101233.25
2022-08-12T23:34:01.471Z,101231.78
2022-08-12T23:36:31.442Z,101233.06
2022-08-12T23:39:02.020Z,101226.78
2022-08-12T23:41:29.760Z,101229.81
2022-08-12T23:44:19.749Z,101234.78
2022-08-12T23:46:58.703Z,101230.47
2022-08-12T23:49:58.128Z,101231.78
2022-08-12T23:52:15.401Z,101221.84
2022-08-12T23:54:45.888Z,101225.75
2022-08-12T23:57:26.573Z,101227.06
